createdAt,value
2022-12-18T00:03:51.978Z,47.33
2022-12-18T00:08:48.510Z,54.60
2022-12-18T00:11:18.197Z,56.40
2022-12-18T00:13:46.885Z,55.30
2022-12-18T00:16:19.339Z,57.42
2022-12-18T00:18:47.063Z,61.03
2022-12-18T00:21:16.653Z,70.13
2022-12-18T00:23:45.407Z,57.03
2022-12-18T00:26:17.300Z,65.63
2022-12-18T00:28:45.718Z,67.53
2022-12-18T00:31:16.076Z,79.05
2022-12-18T00:33:44.559Z,83.07
2022-12-18T00:36:14.563Z,78.50
2022-12-18T00:38:43.907Z,79.50
2022-12-18T00:41:13.213Z,82.80
2022-12-18T00:43:41.076Z,66.20
2022-12-18T00:46:08.963Z,88.57
2022-12-18T00:48:37.341Z,77.07
2022-12-18T00:51:04.971Z,83.35
2022-12-18T00:53:32.571Z,84.35
2022-12-18T00:56:01.605Z,74.63
2022-12-18T00:58:29.315Z,78.07
2022-12-18T01:00:57.001Z,74.85
2022-12-18T01:03:24.630Z,77.85
2022-12-18T01:05:52.299Z,73.43
2022-12-18T01:08:19.923Z,80.25
2022-12-18T01:10:47.634Z,72.90
2022-12-18T01:13:16.688Z,82.65
2022-12-18T01:15:50.270Z,82.00
2022-12-18T01:18:18.140Z,73.28
2022-12-18T01:20:45.950Z,62.80
2022-12-18T01:23:13.600Z,68.25
2022-12-18T01:25:41.249Z,71.90
2022-12-18T01:28:08.933Z,66.63
2022-12-18T01:30:37.946Z,63.78
2022-12-18T01:33:06.217Z,61.55
2022-12-18T01:35:33.942Z,60.95
2022-12-18T01:38:01.587Z,71.55
2022-12-18T01:40:29.246Z,64.93
2022-12-18T01:42:56.925Z,65.60
2022-12-18T01:45:28.210Z,65.07
2022-12-18T01:47:59.945Z,64.28
2022-12-18T01:50:32.860Z,61.38
2022-12-18T01:53:04.334Z,58.53
2022-12-18T01:55:38.101Z,59.40
2022-12-18T01:58:06.159Z,61.28
2022-12-18T02:00:34.254Z,58.83
2022-12-18T02:03:03.450Z,55.58
2022-12-18T02:05:40.986Z,62.17
2022-12-18T02:08:15.088Z,58.88
2022-12-18T02:10:50.286Z,53.65
2022-12-18T02:13:22.920Z,50.45
2022-12-18T02:16:00.443Z,50.50
2022-12-18T02:18:33.956Z,50.90
2022-12-18T02:21:07.092Z,51.90
2022-12-18T02:23:49.362Z,44.95
2022-12-18T02:26:28.316Z,51.03
2022-12-18T02:29:01.707Z,51.33
2022-12-18T02:31:32.586Z,57.55
2022-12-18T02:34:04.330Z,53.63
2022-12-18T02:36:34.314Z,50.17
2022-12-18T02:39:03.688Z,49.97
2022-12-18T02:41:33.502Z,50.65
2022-12-18T02:44:08.401Z,45.95
2022-12-18T02:46:38.842Z,51.15
2022-12-18T02:49:23.709Z,44.75
2022-12-18T02:51:55.965Z,42.95
2022-12-18T02:54:44.623Z,45.70
2022-12-18T02:57:20.511Z,48.65
2022-12-18T02:59:59.036Z,47.10
2022-12-18T03:02:34.530Z,45.47
2022-12-18T03:05:09.761Z,47.20
2022-12-18T03:07:41.298Z,51.03
2022-12-18T03:10:13.686Z,51.15
2022-12-18T03:12:46.900Z,51.25
2022-12-18T03:15:19.535Z,55.28
2022-12-18T03:17:53.682Z,54.17
2022-12-18T03:20:23.940Z,56.75
2022-12-18T03:22:55.136Z,54.17
2022-12-18T03:25:24.382Z,57.42
2022-12-18T03:27:58.669Z,52.93
2022-12-18T03:30:28.446Z,60.95
2022-12-18T03:33:02.233Z,57.17
2022-12-18T03:35:34.427Z,56.72
2022-12-18T03:38:02.080Z,47.72
2022-12-18T03:40:35.746Z,54.97
2022-12-18T03:43:10.954Z,49.25
2022-12-18T03:45:43.393Z,44.47
2022-12-18T03:48:18.784Z,49.55
2022-12-18T03:50:51.670Z,51.75
2022-12-18T03:53:29.483Z,53.60
2022-12-18T03:55:58.865Z,47.90
2022-12-18T03:58:30.660Z,39.20
2022-12-18T04:01:02.290Z,45.67
2022-12-18T04:03:31.944Z,51.85
2022-12-18T04:06:02.838Z,47.05
2022-12-18T04:08:31.138Z,50.97
2022-12-18T04:10:58.886Z,54.30
2022-12-18T04:13:31.183Z,47.92
2022-12-18T04:15:58.907Z,47.38
2022-12-18T04:18:26.742Z,45.15
2022-12-18T04:20:55.033Z,40.40
2022-12-18T04:23:23.497Z,43.03
2022-12-18T04:25:51.555Z,50.42
2022-12-18T04:28:19.317Z,47.80
2022-12-18T04:30:51.140Z,45.40
2022-12-18T04:33:18.959Z,41.05
2022-12-18T04:35:47.081Z,43.38
2022-12-18T04:38:15.175Z,50.53
2022-12-18T04:40:42.846Z,45.95
2022-12-18T04:43:11.179Z,45.63
2022-12-18T04:45:39.478Z,50.38
2022-12-18T04:48:09.749Z,47.92
2022-12-18T04:50:38.172Z,44.90
2022-12-18T04:53:05.834Z,49.35
2022-12-18T04:55:33.543Z,47.17
2022-12-18T04:58:01.199Z,44.53
2022-12-18T05:00:28.887Z,47.22
2022-12-18T05:02:56.956Z,43.42
2022-12-18T05:05:26.080Z,52.72
2022-12-18T05:07:53.751Z,48.38
2022-12-18T05:10:21.462Z,47.78
2022-12-18T05:13:01.381Z,45.30
2022-12-18T05:15:30.518Z,50.58
2022-12-18T05:17:58.539Z,42.90
2022-12-18T05:20:28.692Z,48.63
2022-12-18T05:22:57.784Z,45.95
2022-12-18T05:25:25.911Z,48.63
2022-12-18T05:27:53.549Z,41.53
2022-12-18T05:30:21.187Z,45.75
2022-12-18T05:32:48.814Z,43.53
2022-12-18T05:35:16.456Z,45.70
2022-12-18T05:37:45.457Z,44.20
2022-12-18T05:40:14.269Z,42.25
2022-12-18T05:42:41.857Z,47.63
2022-12-18T05:45:10.219Z,49.13
2022-12-18T05:47:37.916Z,47.63
2022-12-18T05:50:06.628Z,51.25
2022-12-18T05:52:34.307Z,50.63
2022-12-18T05:55:03.330Z,49.10
2022-12-18T05:57:30.990Z,52.83
2022-12-18T05:59:58.646Z,49.45
2022-12-18T06:02:26.447Z,53.28
2022-12-18T06:04:54.213Z,51.08
2022-12-18T06:07:21.838Z,50.45
2022-12-18T06:09:49.522Z,52.03
2022-12-18T06:12:18.506Z,50.15
2022-12-18T06:14:46.238Z,50.17
2022-12-18T06:17:13.895Z,58.00
2022-12-18T06:19:41.530Z,56.75
2022-12-18T06:22:09.156Z,54.40
2022-12-18T06:24:36.837Z,57.50
2022-12-18T06:27:04.487Z,51.30
2022-12-18T06:29:33.446Z,55.85
2022-12-18T06:32:01.152Z,56.35
2022-12-18T06:34:28.847Z,58.47
2022-12-18T06:36:56.444Z,61.78
2022-12-18T06:39:24.124Z,64.65
2022-12-18T06:41:51.816Z,53.10
2022-12-18T06:44:19.681Z,56.67
2022-12-18T06:46:48.750Z,60.22
2022-12-18T06:49:16.916Z,62.53
2022-12-18T06:51:44.824Z,60.75
2022-12-18T06:54:13.182Z,52.97
2022-12-18T06:56:40.909Z,52.20
2022-12-18T06:59:08.578Z,54.00
2022-12-18T07:01:36.343Z,55.17
2022-12-18T07:04:05.407Z,51.67
2022-12-18T07:06:33.125Z,50.47
2022-12-18T07:09:00.765Z,53.55
2022-12-18T07:11:28.426Z,47.97
2022-12-18T07:13:56.381Z,58.25
2022-12-18T07:16:25.853Z,50.50
2022-12-18T07:18:53.779Z,47.67
2022-12-18T07:21:23.979Z,48.72
2022-12-18T07:26:20.837Z,48.35
2022-12-18T07:28:49.118Z,45.47
2022-12-18T07:31:19.404Z,46.72
2022-12-18T07:33:47.908Z,38.72
2022-12-18T07:36:16.346Z,45.53
2022-12-18T07:38:45.415Z,46.17
2022-12-18T07:41:15.114Z,41.55
2022-12-18T07:43:43.987Z,51.72
2022-12-18T07:46:14.654Z,39.37
2022-12-18T07:48:42.534Z,45.47
2022-12-18T07:51:15.263Z,42.78
2022-12-18T07:53:43.456Z,42.92
2022-12-18T07:56:31.205Z,49.30
2022-12-18T07:58:59.800Z,47.00
2022-12-18T08:01:27.924Z,50.50
2022-12-18T08:03:55.851Z,45.47
2022-12-18T08:06:24.303Z,46.95
2022-12-18T08:08:53.381Z,47.67
2022-12-18T08:11:23.065Z,40.78
2022-12-18T08:13:50.883Z,40.55
2022-12-18T08:16:19.691Z,46.25
2022-12-18T08:18:48.526Z,42.10
2022-12-18T08:21:19.054Z,40.05
2022-12-18T08:23:48.733Z,41.47
2022-12-18T08:26:17.242Z,47.30
2022-12-18T08:28:46.595Z,41.67
2022-12-18T08:31:14.288Z,43.83
2022-12-18T08:33:43.602Z,44.28
2022-12-18T08:36:12.287Z,53.58
2022-12-18T08:38:39.996Z,45.83
2022-12-18T08:41:09.073Z,41.72
2022-12-18T08:43:54.049Z,47.38
2022-12-18T08:46:25.754Z,48.53
2022-12-18T08:48:54.404Z,41.28
2022-12-18T08:51:22.246Z,47.03
2022-12-18T08:53:50.331Z,41.30
2022-12-18T08:56:18.240Z,46.60
2022-12-18T08:58:46.100Z,49.50
2022-12-18T09:01:14.675Z,45.28
2022-12-18T09:03:44.267Z,44.35
2022-12-18T09:06:16.533Z,56.67
2022-12-18T09:08:44.632Z,48.72
2022-12-18T09:11:18.248Z,52.83
2022-12-18T09:13:45.859Z,49.22
2022-12-18T09:16:13.662Z,47.40
2022-12-18T09:18:41.873Z,51.85
2022-12-18T09:21:13.288Z,55.80
2022-12-18T09:23:41.144Z,62.53
2022-12-18T09:26:08.868Z,54.60
2022-12-18T09:28:36.696Z,47.75
2022-12-18T09:31:08.397Z,52.15
2022-12-18T09:33:36.600Z,58.80
2022-12-18T09:36:07.997Z,55.25
2022-12-18T09:38:38.123Z,47.95
2022-12-18T09:41:15.479Z,56.33
2022-12-18T09:43:48.014Z,54.22
2022-12-18T09:46:20.838Z,46.38
2022-12-18T09:48:52.436Z,50.63
2022-12-18T09:51:25.226Z,57.08
2022-12-18T09:53:57.637Z,50.28
2022-12-18T09:56:30.347Z,53.63
2022-12-18T09:59:01.382Z,56.88
2022-12-18T10:01:41.471Z,49.42
2022-12-18T10:04:11.962Z,57.45
2022-12-18T10:06:46.742Z,55.28
2022-12-18T10:09:22.787Z,72.00
2022-12-18T10:11:58.965Z,58.35
2022-12-18T10:14:36.677Z,50.92
2022-12-18T10:17:16.709Z,53.60
2022-12-18T10:19:51.216Z,55.88
2022-12-18T10:22:31.031Z,52.60
2022-12-18T10:25:06.582Z,59.63
2022-12-18T10:27:34.549Z,61.35
2022-12-18T10:30:09.906Z,56.55
2022-12-18T10:32:37.554Z,49.53
2022-12-18T10:35:07.105Z,50.05
2022-12-18T10:37:34.797Z,54.40
2022-12-18T10:40:19.903Z,51.63
2022-12-18T10:43:06.050Z,57.22
2022-12-18T10:45:33.967Z,49.70
2022-12-18T10:48:01.652Z,48.58
2022-12-18T10:51:08.762Z,49.88
2022-12-18T10:53:22.665Z,43.97
2022-12-18T10:55:53.927Z,42.25
2022-12-18T10:58:26.973Z,49.45
2022-12-18T11:01:08.120Z,46.50
2022-12-18T11:03:37.692Z,39.10
2022-12-18T11:06:08.588Z,41.20
2022-12-18T11:08:36.859Z,42.00
2022-12-18T11:11:17.050Z,41.90
2022-12-18T11:16:21.434Z,45.78
2022-12-18T11:18:49.247Z,38.00
2022-12-18T11:21:17.112Z,40.03
2022-12-18T11:23:49.489Z,41.17
2022-12-18T11:26:18.816Z,37.35
2022-12-18T11:28:49.012Z,38.90
2022-12-18T11:34:26.923Z,48.97
2022-12-18T11:36:47.272Z,36.50
2022-12-18T11:42:13.156Z,39.55
2022-12-18T11:44:47.814Z,32.47
2022-12-18T11:47:26.794Z,54.53
2022-12-18T11:49:57.384Z,35.60
2022-12-18T11:52:28.612Z,42.65
2022-12-18T11:55:00.861Z,38.33
2022-12-18T11:57:39.837Z,35.50
2022-12-18T12:00:15.842Z,39.75
2022-12-18T12:03:15.946Z,28.27
2022-12-18T12:05:56.291Z,33.13
2022-12-18T12:08:32.467Z,33.67
2022-12-18T12:11:11.932Z,31.33
2022-12-18T12:13:49.960Z,31.55
2022-12-18T12:16:27.819Z,27.73
2022-12-18T12:19:09.140Z,32.50
2022-12-18T12:21:41.503Z,31.60
2022-12-18T12:24:28.514Z,30.35
2022-12-18T12:27:08.446Z,32.85
2022-12-18T12:29:52.771Z,29.13
2022-12-18T12:32:33.677Z,29.55
2022-12-18T12:35:15.307Z,58.65
2022-12-18T12:37:55.592Z,51.47
2022-12-18T12:43:23.342Z,36.58
2022-12-18T12:45:55.926Z,34.88
2022-12-18T12:48:42.174Z,35.10
2022-12-18T12:51:15.915Z,35.47
2022-12-18T12:53:45.011Z,33.00
2022-12-18T12:56:16.878Z,32.60
2022-12-18T12:58:54.560Z,34.45
2022-12-18T13:01:35.907Z,36.72
2022-12-18T13:04:12.872Z,32.40
2022-12-18T13:06:47.988Z,31.70
2022-12-18T13:09:15.859Z,35.50
2022-12-18T13:12:02.924Z,40.63
2022-12-18T13:14:33.453Z,49.08
2022-12-18T13:17:19.475Z,33.97
2022-12-18T13:19:51.816Z,34.42
2022-12-18T13:22:24.777Z,37.33
2022-12-18T13:24:53.420Z,32.65
2022-12-18T13:27:59.063Z,36.00
2022-12-18T13:31:00.260Z,38.03
2022-12-18T13:34:16.658Z,36.38
2022-12-18T13:36:34.408Z,36.83
2022-12-18T13:39:32.700Z,38.42
2022-12-18T13:42:57.297Z,33.55
2022-12-18T13:45:44.995Z,34.42
2022-12-18T13:48:26.459Z,32.20
2022-12-18T13:51:05.462Z,41.38
2022-12-18T13:53:39.165Z,34.28
2022-12-18T13:56:07.880Z,30.88
2022-12-18T13:58:36.277Z,38.33
2022-12-18T14:01:05.653Z,32.67
2022-12-18T14:03:33.657Z,35.33
2022-12-18T14:06:07.383Z,35.00
2022-12-18T14:08:40.554Z,35.22
2022-12-18T14:11:09.318Z,35.47
2022-12-18T14:13:44.084Z,39.90
2022-12-18T14:16:16.170Z,35.97
2022-12-18T14:18:47.022Z,41.60
2022-12-18T14:21:25.731Z,35.38
2022-12-18T14:24:05.927Z,30.77
2022-12-18T14:29:03.709Z,35.75
2022-12-18T14:31:33.296Z,37.45
2022-12-18T14:34:00.965Z,36.03
2022-12-18T14:36:31.078Z,35.38
2022-12-18T14:39:00.329Z,31.67
2022-12-18T14:41:29.415Z,35.67
2022-12-18T14:43:57.212Z,34.03
2022-12-18T14:46:31.915Z,33.42
2022-12-18T14:48:59.756Z,31.50
2022-12-18T14:51:33.348Z,29.02
2022-12-18T14:54:02.707Z,31.60
2022-12-18T14:56:32.833Z,32.37
2022-12-18T15:01:31.737Z,30.92
2022-12-18T15:04:00.811Z,29.15
2022-12-18T15:06:35.843Z,30.77
2022-12-18T15:09:06.428Z,31.92
2022-12-18T15:11:47.375Z,28.17
2022-12-18T15:14:36.798Z,31.42
2022-12-18T15:17:07.056Z,22.33
2022-12-18T15:22:06.795Z,31.80
2022-12-18T15:24:35.248Z,29.10
2022-12-18T15:27:03.270Z,31.70
2022-12-18T15:29:30.996Z,28.30
2022-12-18T15:32:03.942Z,27.10
2022-12-18T15:34:31.715Z,28.17
2022-12-18T15:36:59.450Z,27.42
2022-12-18T15:39:28.473Z,27.25
2022-12-18T15:42:13.957Z,30.35
2022-12-18T15:44:41.619Z,31.40
2022-12-18T15:47:14.396Z,30.10
2022-12-18T15:49:42.087Z,30.02
2022-12-18T15:52:15.244Z,30.88
2022-12-18T15:55:01.505Z,29.15
2022-12-18T15:57:29.151Z,30.48
2022-12-18T15:59:59.284Z,36.35
2022-12-18T16:02:28.915Z,28.55
2022-12-18T16:04:56.769Z,22.08
2022-12-18T16:07:28.112Z,28.75
2022-12-18T16:10:02.376Z,29.50
2022-12-18T16:12:30.473Z,31.17
2022-12-18T16:14:58.239Z,29.58
2022-12-18T16:17:25.894Z,31.92
2022-12-18T16:19:53.555Z,29.33
2022-12-18T16:22:23.654Z,34.78
2022-12-18T16:24:52.059Z,31.63
2022-12-18T16:27:21.812Z,31.50
2022-12-18T16:29:49.542Z,30.75
2022-12-18T16:32:19.696Z,37.65
2022-12-18T16:34:47.983Z,33.58
2022-12-18T16:37:17.623Z,38.55
2022-12-18T16:39:45.600Z,37.15
2022-12-18T16:42:17.037Z,37.33
2022-12-18T16:44:47.266Z,33.72
2022-12-18T16:49:45.175Z,31.42
2022-12-18T16:52:12.971Z,36.42
2022-12-18T16:54:40.663Z,31.67
2022-12-18T16:57:08.360Z,36.08
2022-12-18T16:59:36.044Z,35.75
2022-12-18T17:02:13.193Z,32.40
2022-12-18T17:04:40.975Z,34.88
2022-12-18T17:07:08.964Z,33.70
2022-12-18T17:09:36.951Z,34.28
2022-12-18T17:12:05.010Z,35.05
2022-12-18T17:14:33.781Z,40.42
2022-12-18T17:19:51.720Z,33.65
2022-12-18T17:22:19.719Z,37.95
2022-12-18T17:24:48.008Z,39.95
2022-12-18T17:27:15.816Z,38.70
2022-12-18T17:29:47.785Z,35.08
2022-12-18T17:32:16.346Z,40.00
2022-12-18T17:34:44.164Z,35.78
2022-12-18T17:37:13.329Z,38.47
2022-12-18T17:39:41.953Z,39.75
2022-12-18T17:42:11.480Z,40.80
2022-12-18T17:44:43.440Z,40.38
2022-12-18T17:47:12.334Z,38.38
2022-12-18T17:49:40.139Z,45.65
2022-12-18T17:52:08.020Z,41.92
2022-12-18T17:54:39.542Z,43.70
2022-12-18T17:57:07.340Z,45.00
2022-12-18T17:59:35.000Z,40.83
2022-12-18T18:02:02.856Z,40.58
2022-12-18T18:04:30.725Z,39.00
2022-12-18T18:06:58.349Z,51.63
2022-12-18T18:09:26.054Z,45.22
2022-12-18T18:12:12.812Z,41.50
2022-12-18T18:14:40.643Z,44.00
2022-12-18T18:17:08.385Z,45.08
2022-12-18T18:19:35.982Z,47.33
2022-12-18T18:22:03.815Z,44.78
2022-12-18T18:24:32.388Z,46.65
2022-12-18T18:27:01.347Z,46.63
2022-12-18T18:29:31.281Z,45.70
2022-12-18T18:31:59.533Z,43.00
2022-12-18T18:34:28.925Z,46.33
2022-12-18T18:36:59.586Z,48.27
2022-12-18T18:39:27.926Z,43.42
2022-12-18T18:41:55.915Z,48.28
2022-12-18T18:44:25.976Z,47.13
2022-12-18T18:46:55.135Z,49.08
2022-12-18T18:49:24.192Z,49.00
2022-12-18T18:51:52.079Z,41.67
2022-12-18T18:54:20.824Z,48.42
2022-12-18T18:59:39.687Z,46.50
2022-12-18T19:02:08.366Z,49.08
2022-12-18T19:04:36.517Z,46.15
2022-12-18T19:07:11.276Z,49.67
2022-12-18T19:09:38.907Z,51.47
2022-12-18T19:12:24.337Z,47.42
2022-12-18T19:14:55.259Z,50.20
2022-12-18T19:17:28.059Z,54.25
2022-12-18T19:19:57.478Z,55.33
2022-12-18T19:22:25.132Z,54.83
2022-12-18T19:24:52.793Z,52.58
2022-12-18T19:27:20.424Z,51.67
2022-12-18T19:29:50.509Z,48.70
2022-12-18T19:32:19.543Z,48.28
2022-12-18T19:34:47.266Z,53.67
2022-12-18T19:37:15.658Z,50.10
2022-12-18T19:39:43.332Z,48.15
2022-12-18T19:42:10.925Z,45.92
2022-12-18T19:44:38.808Z,51.92
2022-12-18T19:47:06.487Z,50.78
2022-12-18T19:49:35.546Z,51.20
2022-12-18T19:52:03.249Z,47.75
2022-12-18T19:54:31.284Z,54.33
2022-12-18T19:56:58.981Z,46.67
2022-12-18T19:59:27.229Z,46.58
2022-12-18T20:01:55.517Z,49.60
2022-12-18T20:04:23.596Z,51.28
2022-12-18T20:06:54.705Z,48.95
2022-12-18T20:09:22.742Z,50.35
2022-12-18T20:11:50.450Z,53.05
2022-12-18T20:14:22.598Z,50.67
2022-12-18T20:16:52.108Z,46.92
2022-12-18T20:19:20.242Z,59.45
2022-12-18T20:21:48.455Z,51.47
2022-12-18T20:24:17.449Z,48.78
2022-12-18T20:26:45.157Z,52.00
2022-12-18T20:29:12.997Z,47.50
2022-12-18T20:31:41.199Z,53.80
2022-12-18T20:34:09.080Z,53.00
2022-12-18T20:36:37.656Z,48.78
2022-12-18T20:39:08.759Z,55.75
2022-12-18T20:41:39.152Z,51.28
2022-12-18T20:44:22.388Z,51.50
2022-12-18T20:46:52.586Z,53.63
2022-12-18T20:49:20.224Z,55.53
2022-12-18T20:51:51.013Z,47.00
2022-12-18T20:54:21.847Z,45.58
2022-12-18T20:56:51.387Z,50.28
2022-12-18T20:59:19.607Z,53.50
2022-12-18T21:01:48.580Z,50.13
2022-12-18T21:04:18.211Z,52.55
2022-12-18T21:06:51.362Z,51.70
2022-12-18T21:09:21.257Z,50.33
2022-12-18T21:12:08.077Z,49.63
2022-12-18T21:14:38.014Z,48.72
2022-12-18T21:17:06.268Z,44.20
2022-12-18T21:19:33.950Z,50.90
2022-12-18T21:22:01.781Z,47.85
2022-12-18T21:24:32.019Z,48.22
2022-12-18T21:27:05.069Z,45.75
2022-12-18T21:29:33.120Z,48.42
2022-12-18T21:32:00.932Z,56.50
2022-12-18T21:34:30.673Z,50.83
2022-12-18T21:37:00.540Z,52.80
2022-12-18T21:39:29.717Z,53.50
2022-12-18T21:42:15.990Z,51.65
2022-12-18T21:44:48.339Z,49.15
2022-12-18T21:47:22.686Z,51.00
2022-12-18T21:49:52.465Z,47.63
2022-12-18T21:52:21.755Z,45.28
2022-12-18T21:55:01.783Z,48.80
2022-12-18T21:57:34.163Z,50.15
2022-12-18T22:00:03.273Z,49.08
2022-12-18T22:02:31.776Z,47.65
2022-12-18T22:04:59.820Z,51.35
2022-12-18T22:07:29.111Z,51.50
2022-12-18T22:09:56.761Z,51.25
2022-12-18T22:12:43.812Z,47.55
2022-12-18T22:15:18.658Z,46.63
2022-12-18T22:17:50.174Z,50.80
2022-12-18T22:20:18.378Z,53.42
2022-12-18T22:22:48.084Z,49.40
2022-12-18T22:25:15.960Z,46.30
2022-12-18T22:27:43.635Z,45.97
2022-12-18T22:30:14.399Z,43.70
2022-12-18T22:32:42.018Z,45.35
2022-12-18T22:35:15.537Z,51.80
2022-12-18T22:37:43.576Z,46.78
2022-12-18T22:40:23.707Z,49.97
2022-12-18T22:42:51.727Z,45.63
2022-12-18T22:45:24.716Z,46.25
2022-12-18T22:47:52.376Z,44.65
2022-12-18T22:50:20.288Z,47.42
2022-12-18T22:52:47.912Z,43.92
2022-12-18T22:55:15.602Z,44.83
2022-12-18T22:57:48.611Z,40.95
2022-12-18T23:00:17.592Z,47.20
2022-12-18T23:02:55.778Z,45.35
2022-12-18T23:05:38.782Z,47.50
2022-12-18T23:08:06.397Z,42.70
2022-12-18T23:10:34.063Z,41.40
2022-12-18T23:13:01.752Z,38.95
2022-12-18T23:15:29.394Z,44.63
2022-12-18T23:17:59.575Z,44.53
2022-12-18T23:22:55.241Z,40.28
2022-12-18T23:25:23.004Z,44.30
2022-12-18T23:27:50.611Z,48.28
2022-12-18T23:30:18.335Z,40.72
2022-12-18T23:32:46.023Z,43.97
2022-12-18T23:35:15.613Z,41.22
2022-12-18T23:37:58.667Z,47.17
2022-12-18T23:40:27.302Z,43.13
2022-12-18T23:42:55.445Z,41.47
2022-12-18T23:45:23.143Z,40.50
2022-12-18T23:47:51.105Z,41.95
2022-12-18T23:50:25.458Z,44.15
2022-12-18T23:53:04.624Z,39.35
2022-12-18T23:55:34.465Z,41.47
2022-12-18T23:58:02.147Z,43.90
